Sheridan, WY (82801)

12:45 PM MDT on July 29, 2016 (GMT -0600)
South Sheridan | | Change Station

Elev 3770 ft 44.79 °N, 106.95 °W | Updated 8 seconds ago

Clear
Clear
83.3 °F
Feels Like 81 °F
N
0.0
Wind Variable Wind from South
Gusts 0.0 mph

Today
High -- | Low -- °F
--% Chance of Precip.
Yesterday
High -- | Low -- °F
Precip. -- in
Pressure 29.99 in
Visibility 10.0 miles
Clouds Clear
Heat Index 81 °F
Dew Point 45 °F
Humidity 26%
Rainfall 0.00 in
Snow Depth Not available.
5:51 AM 8:36 PM
Waning Crescent, 20% visible
METAR KSHR 291753Z AUTO VRB03KT 10SM CLR 28/09 A3009 RMK AO2 SLP154 T02780094 10283 20106 58007
Pressure 29.99 in
Visibility 10.0 miles
Clouds Clear
Heat Index 81 °F
Dew Point 45 °F
Humidity 26%
Rainfall 0.00 in
Snow Depth Not available.
5:51 AM 8:36 PM
Waning Crescent, 20% visible
METAR KSHR 291753Z AUTO VRB03KT 10SM CLR 28/09 A3009 RMK AO2 SLP154 T02780094 10283 20106 58007

10-Day Weather Forecast

Almanac

Astronomy

Jul. 29, 2016 Rise Set
Actual Time
Civil Twilight
Nautical Twilight
Astronomical Twilight
Moon
Length of Visible Light
Length of Day
Tomorrow will be .
, % of the Moon is Illuminated

Today's Extremes

State Highs State Lows

Community

WunderPhotos

Upload Photos

1,928,393 photos uploaded!

WunderBlog® & News

Nearby

Air Quality

  Air Quality AQ Index Pollutant
Not available.

Snow Depth

Station Depth Elevation

Earthquake Activity

City Distance Mag. Time & Date
Minimum magnitude displayed is 2.5.

Coastal Water Temperatures

Place Temperature

Stations

Nearby Weather Stations

Station Location Temp. Windchill Dew Point Humidity Wind Precip. Elev Updated Type
                   

Watches & Warnings

There are currently no watches in effect.